sensor_id;sensor_type;location;lat;lon;timestamp;P1;durP1;ratioP1;P2;durP2;ratioP2
14872;SDS011;7528;48.576;19.122;2023-05-29T00:04:03;7.35;;;4.78;;
14872;SDS011;7528;48.576;19.122;2023-05-29T00:09:05;8.60;;;4.68;;
14872;SDS011;7528;48.576;19.122;2023-05-29T00:14:08;6.20;;;5.00;;
14872;SDS011;7528;48.576;19.122;2023-05-29T00:19:15;6.38;;;4.90;;
14872;SDS011;7528;48.576;19.122;2023-05-29T00:24:19;8.10;;;4.82;;
14872;SDS011;7528;48.576;19.122;2023-05-29T00:29:22;5.85;;;4.53;;
14872;SDS011;7528;48.576;19.122;2023-05-29T00:34:25;8.23;;;4.63;;
14872;SDS011;7528;48.576;19.122;2023-05-29T00:39:28;8.07;;;4.97;;
14872;SDS011;7528;48.576;19.122;2023-05-29T00:44:30;6.35;;;4.75;;
14872;SDS011;7528;48.576;19.122;2023-05-29T00:49:34;6.53;;;5.00;;
14872;SDS011;7528;48.576;19.122;2023-05-29T00:54:38;6.15;;;4.57;;
14872;SDS011;7528;48.576;19.122;2023-05-29T00:59:41;5.32;;;4.60;;
14872;SDS011;7528;48.576;19.122;2023-05-29T01:04:45;6.60;;;4.78;;
14872;SDS011;7528;48.576;19.122;2023-05-29T01:09:48;6.20;;;5.00;;
14872;SDS011;7528;48.576;19.122;2023-05-29T01:14:54;6.55;;;4.80;;
14872;SDS011;7528;48.576;19.122;2023-05-29T01:20:10;6.47;;;4.85;;
14872;SDS011;7528;48.576;19.122;2023-05-29T01:25:21;6.70;;;5.10;;
14872;SDS011;7528;48.576;19.122;2023-05-29T01:30:33;5.97;;;4.88;;
14872;SDS011;7528;48.576;19.122;2023-05-29T01:35:36;8.88;;;4.82;;
14872;SDS011;7528;48.576;19.122;2023-05-29T01:40:39;7.30;;;4.60;;
14872;SDS011;7528;48.576;19.122;2023-05-29T01:45:43;6.32;;;5.18;;
14872;SDS011;7528;48.576;19.122;2023-05-29T01:50:47;5.68;;;4.68;;
14872;SDS011;7528;48.576;19.122;2023-05-29T01:55:50;6.22;;;4.25;;
14872;SDS011;7528;48.576;19.122;2023-05-29T02:00:56;5.38;;;4.68;;
14872;SDS011;7528;48.576;19.122;2023-05-29T02:05:59;6.10;;;4.43;;
14872;SDS011;7528;48.576;19.122;2023-05-29T02:11:02;5.75;;;4.97;;
14872;SDS011;7528;48.576;19.122;2023-05-29T02:16:06;6.95;;;4.78;;
14872;SDS011;7528;48.576;19.122;2023-05-29T02:21:09;5.65;;;4.68;;
14872;SDS011;7528;48.576;19.122;2023-05-29T02:26:12;6.53;;;4.55;;
14872;SDS011;7528;48.576;19.122;2023-05-29T02:31:16;8.07;;;5.18;;
14872;SDS011;7528;48.576;19.122;2023-05-29T02:36:19;7.82;;;5.20;;
14872;SDS011;7528;48.576;19.122;2023-05-29T02:41:21;7.10;;;5.45;;
14872;SDS011;7528;48.576;19.122;2023-05-29T02:46:26;5.70;;;4.97;;
14872;SDS011;7528;48.576;19.122;2023-05-29T02:51:29;7.85;;;4.72;;
14872;SDS011;7528;48.576;19.122;2023-05-29T02:56:32;8.18;;;4.45;;
14872;SDS011;7528;48.576;19.122;2023-05-29T03:01:37;6.05;;;4.78;;
14872;SDS011;7528;48.576;19.122;2023-05-29T03:06:39;7.68;;;4.63;;
14872;SDS011;7528;48.576;19.122;2023-05-29T03:11:42;5.47;;;4.88;;
14872;SDS011;7528;48.576;19.122;2023-05-29T03:16:46;6.75;;;4.30;;
14872;SDS011;7528;48.576;19.122;2023-05-29T03:21:50;6.93;;;4.65;;
14872;SDS011;7528;48.576;19.122;2023-05-29T03:26:53;5.88;;;4.82;;
14872;SDS011;7528;48.576;19.122;2023-05-29T03:31:58;6.07;;;4.80;;
14872;SDS011;7528;48.576;19.122;2023-05-29T03:37:04;6.80;;;4.65;;
14872;SDS011;7528;48.576;19.122;2023-05-29T03:42:06;7.20;;;5.00;;
14872;SDS011;7528;48.576;19.122;2023-05-29T03:47:10;7.45;;;5.40;;
14872;SDS011;7528;48.576;19.122;2023-05-29T03:52:13;6.70;;;5.00;;
14872;SDS011;7528;48.576;19.122;2023-05-29T03:57:16;5.43;;;4.85;;
14872;SDS011;7528;48.576;19.122;2023-05-29T04:02:20;6.20;;;4.97;;
14872;SDS011;7528;48.576;19.122;2023-05-29T04:07:23;6.25;;;5.00;;
14872;SDS011;7528;48.576;19.122;2023-05-29T04:12:26;6.07;;;5.03;;
14872;SDS011;7528;48.576;19.122;2023-05-29T04:17:31;8.05;;;5.15;;
14872;SDS011;7528;48.576;19.122;2023-05-29T04:22:33;7.57;;;5.13;;
14872;SDS011;7528;48.576;19.122;2023-05-29T04:27:36;9.57;;;5.80;;
14872;SDS011;7528;48.576;19.122;2023-05-29T04:32:42;9.57;;;5.95;;
14872;SDS011;7528;48.576;19.122;2023-05-29T04:37:47;8.02;;;5.65;;
14872;SDS011;7528;48.576;19.122;2023-05-29T04:42:49;7.28;;;5.30;;
14872;SDS011;7528;48.576;19.122;2023-05-29T04:47:55;8.30;;;5.70;;
14872;SDS011;7528;48.576;19.122;2023-05-29T04:52:57;6.60;;;5.55;;
14872;SDS011;7528;48.576;19.122;2023-05-29T04:58:00;6.10;;;5.28;;
14872;SDS011;7528;48.576;19.122;2023-05-29T05:03:04;8.10;;;6.38;;
14872;SDS011;7528;48.576;19.122;2023-05-29T05:08:07;11.25;;;6.00;;
14872;SDS011;7528;48.576;19.122;2023-05-29T05:13:10;8.00;;;6.10;;
14872;SDS011;7528;48.576;19.122;2023-05-29T05:18:15;7.18;;;5.97;;
14872;SDS011;7528;48.576;19.122;2023-05-29T05:23:24;10.00;;;6.65;;
14872;SDS011;7528;48.576;19.122;2023-05-29T05:28:27;8.48;;;5.93;;
14872;SDS011;7528;48.576;19.122;2023-05-29T05:33:31;8.05;;;5.95;;
14872;SDS011;7528;48.576;19.122;2023-05-29T05:38:33;7.18;;;5.93;;
14872;SDS011;7528;48.576;19.122;2023-05-29T05:43:36;8.68;;;5.93;;
14872;SDS011;7528;48.576;19.122;2023-05-29T05:48:46;7.10;;;5.78;;
14872;SDS011;7528;48.576;19.122;2023-05-29T05:53:50;7.25;;;6.25;;
14872;SDS011;7528;48.576;19.122;2023-05-29T05:58:54;7.38;;;5.85;;
14872;SDS011;7528;48.576;19.122;2023-05-29T06:03:58;7.05;;;5.50;;
14872;SDS011;7528;48.576;19.122;2023-05-29T06:09:01;6.40;;;5.18;;
14872;SDS011;7528;48.576;19.122;2023-05-29T06:14:04;8.50;;;5.20;;
14872;SDS011;7528;48.576;19.122;2023-05-29T06:19:08;6.47;;;5.25;;
14872;SDS011;7528;48.576;19.122;2023-05-29T06:24:25;7.90;;;5.97;;
14872;SDS011;7528;48.576;19.122;2023-05-29T06:29:30;8.82;;;5.32;;
14872;SDS011;7528;48.576;19.122;2023-05-29T06:34:34;8.07;;;5.68;;
14872;SDS011;7528;48.576;19.122;2023-05-29T06:39:36;6.20;;;4.93;;
14872;SDS011;7528;48.576;19.122;2023-05-29T06:44:42;6.78;;;4.50;;
14872;SDS011;7528;48.576;19.122;2023-05-29T06:49:46;6.30;;;4.60;;
14872;SDS011;7528;48.576;19.122;2023-05-29T06:54:48;5.75;;;4.90;;
14872;SDS011;7528;48.576;19.122;2023-05-29T06:59:51;6.95;;;5.28;;
14872;SDS011;7528;48.576;19.122;2023-05-29T07:04:55;6.40;;;4.72;;
14872;SDS011;7528;48.576;19.122;2023-05-29T07:09:58;6.53;;;5.13;;
14872;SDS011;7528;48.576;19.122;2023-05-29T07:15:01;10.60;;;5.10;;
14872;SDS011;7528;48.576;19.122;2023-05-29T07:20:06;6.75;;;5.13;;
14872;SDS011;7528;48.576;19.122;2023-05-29T07:25:12;6.07;;;4.82;;
14872;SDS011;7528;48.576;19.122;2023-05-29T07:30:15;10.63;;;5.20;;
14872;SDS011;7528;48.576;19.122;2023-05-29T07:35:20;5.20;;;4.47;;
14872;SDS011;7528;48.576;19.122;2023-05-29T07:40:23;7.40;;;4.82;;
14872;SDS011;7528;48.576;19.122;2023-05-29T07:45:31;5.70;;;4.82;;
14872;SDS011;7528;48.576;19.122;2023-05-29T07:50:35;6.15;;;4.65;;
14872;SDS011;7528;48.576;19.122;2023-05-29T07:55:39;7.40;;;4.97;;
14872;SDS011;7528;48.576;19.122;2023-05-29T08:00:43;7.10;;;5.10;;
14872;SDS011;7528;48.576;19.122;2023-05-29T08:05:47;5.32;;;4.82;;
14872;SDS011;7528;48.576;19.122;2023-05-29T08:10:52;5.65;;;4.72;;
14872;SDS011;7528;48.576;19.122;2023-05-29T08:15:54;5.88;;;5.05;;
14872;SDS011;7528;48.576;19.122;2023-05-29T08:20:58;5.88;;;4.95;;
14872;SDS011;7528;48.576;19.122;2023-05-29T08:26:00;8.05;;;5.40;;
14872;SDS011;7528;48.576;19.122;2023-05-29T08:31:03;8.65;;;4.13;;
14872;SDS011;7528;48.576;19.122;2023-05-29T08:36:07;5.43;;;4.85;;
14872;SDS011;7528;48.576;19.122;2023-05-29T08:41:10;5.80;;;4.50;;
14872;SDS011;7528;48.576;19.122;2023-05-29T08:46:19;6.07;;;4.70;;
14872;SDS011;7528;48.576;19.122;2023-05-29T08:51:23;6.32;;;4.93;;
14872;SDS011;7528;48.576;19.122;2023-05-29T08:56:32;7.50;;;5.38;;
14872;SDS011;7528;48.576;19.122;2023-05-29T09:01:36;8.45;;;4.75;;
14872;SDS011;7528;48.576;19.122;2023-05-29T09:06:41;4.80;;;4.38;;
14872;SDS011;7528;48.576;19.122;2023-05-29T09:11:47;4.93;;;4.43;;
14872;SDS011;7528;48.576;19.122;2023-05-29T09:16:49;6.10;;;4.13;;
14872;SDS011;7528;48.576;19.122;2023-05-29T09:21:53;5.95;;;4.45;;
14872;SDS011;7528;48.576;19.122;2023-05-29T09:27:03;5.70;;;4.85;;
14872;SDS011;7528;48.576;19.122;2023-05-29T09:32:08;7.88;;;4.22;;
14872;SDS011;7528;48.576;19.122;2023-05-29T09:37:13;6.65;;;4.93;;
14872;SDS011;7528;48.576;19.122;2023-05-29T09:42:18;5.50;;;4.78;;
14872;SDS011;7528;48.576;19.122;2023-05-29T09:47:20;5.68;;;4.93;;
14872;SDS011;7528;48.576;19.122;2023-05-29T09:52:24;5.22;;;4.35;;
14872;SDS011;7528;48.576;19.122;2023-05-29T09:57:29;6.95;;;5.03;;
14872;SDS011;7528;48.576;19.122;2023-05-29T10:02:31;4.82;;;4.32;;
14872;SDS011;7528;48.576;19.122;2023-05-29T10:07:36;6.25;;;5.00;;
14872;SDS011;7528;48.576;19.122;2023-05-29T10:12:44;5.85;;;4.65;;
14872;SDS011;7528;48.576;19.122;2023-05-29T10:17:50;4.97;;;4.47;;
14872;SDS011;7528;48.576;19.122;2023-05-29T10:22:56;5.13;;;4.60;;
14872;SDS011;7528;48.576;19.122;2023-05-29T10:28:02;6.45;;;5.00;;
14872;SDS011;7528;48.576;19.122;2023-05-29T10:33:08;5.47;;;4.35;;
14872;SDS011;7528;48.576;19.122;2023-05-29T10:38:24;5.05;;;4.55;;
14872;SDS011;7528;48.576;19.122;2023-05-29T10:43:30;5.38;;;4.45;;
14872;SDS011;7528;48.576;19.122;2023-05-29T10:48:37;5.18;;;4.68;;
14872;SDS011;7528;48.576;19.122;2023-05-29T10:53:42;5.43;;;4.93;;
14872;SDS011;7528;48.576;19.122;2023-05-29T10:58:45;6.03;;;5.15;;
14872;SDS011;7528;48.576;19.122;2023-05-29T11:04:01;5.90;;;4.70;;
14872;SDS011;7528;48.576;19.122;2023-05-29T11:09:30;5.60;;;5.05;;
14872;SDS011;7528;48.576;19.122;2023-05-29T11:14:43;5.32;;;4.82;;
14872;SDS011;7528;48.576;19.122;2023-05-29T11:19:47;6.00;;;5.40;;
14872;SDS011;7528;48.576;19.122;2023-05-29T11:24:52;5.57;;;5.00;;
14872;SDS011;7528;48.576;19.122;2023-05-29T11:29:56;5.72;;;5.20;;
14872;SDS011;7528;48.576;19.122;2023-05-29T11:34:59;7.45;;;5.28;;
14872;SDS011;7528;48.576;19.122;2023-05-29T11:40:08;5.88;;;5.28;;
14872;SDS011;7528;48.576;19.122;2023-05-29T11:45:14;6.10;;;5.47;;
14872;SDS011;7528;48.576;19.122;2023-05-29T11:50:20;6.45;;;5.80;;
14872;SDS011;7528;48.576;19.122;2023-05-29T11:55:25;5.38;;;4.90;;
14872;SDS011;7528;48.576;19.122;2023-05-29T12:00:30;5.97;;;5.32;;
14872;SDS011;7528;48.576;19.122;2023-05-29T12:05:43;6.07;;;5.18;;
14872;SDS011;7528;48.576;19.122;2023-05-29T12:10:49;5.55;;;5.05;;
14872;SDS011;7528;48.576;19.122;2023-05-29T12:15:53;5.80;;;5.20;;
14872;SDS011;7528;48.576;19.122;2023-05-29T12:20:58;5.68;;;5.07;;
14872;SDS011;7528;48.576;19.122;2023-05-29T12:26:02;5.72;;;5.20;;
14872;SDS011;7528;48.576;19.122;2023-05-29T12:31:06;5.70;;;5.18;;
14872;SDS011;7528;48.576;19.122;2023-05-29T12:36:09;6.13;;;5.53;;
14872;SDS011;7528;48.576;19.122;2023-05-29T12:41:23;6.75;;;5.63;;
14872;SDS011;7528;48.576;19.122;2023-05-29T12:46:27;6.65;;;6.05;;
14872;SDS011;7528;48.576;19.122;2023-05-29T12:51:30;6.13;;;5.55;;
14872;SDS011;7528;48.576;19.122;2023-05-29T12:56:34;6.53;;;5.72;;
14872;SDS011;7528;48.576;19.122;2023-05-29T13:01:36;6.32;;;5.25;;
14872;SDS011;7528;48.576;19.122;2023-05-29T13:06:39;7.55;;;5.40;;
14872;SDS011;7528;48.576;19.122;2023-05-29T13:11:43;5.93;;;5.43;;
14872;SDS011;7528;48.576;19.122;2023-05-29T13:16:45;5.90;;;5.30;;
14872;SDS011;7528;48.576;19.122;2023-05-29T13:21:48;7.65;;;5.30;;
14872;SDS011;7528;48.576;19.122;2023-05-29T13:26:51;6.15;;;5.55;;
14872;SDS011;7528;48.576;19.122;2023-05-29T13:31:54;6.93;;;5.53;;
14872;SDS011;7528;48.576;19.122;2023-05-29T13:36:56;6.38;;;5.60;;
14872;SDS011;7528;48.576;19.122;2023-05-29T13:42:00;6.22;;;5.60;;
14872;SDS011;7528;48.576;19.122;2023-05-29T13:47:03;6.05;;;5.50;;
14872;SDS011;7528;48.576;19.122;2023-05-29T13:52:06;7.10;;;5.82;;
14872;SDS011;7528;48.576;19.122;2023-05-29T13:57:10;7.38;;;5.93;;
14872;SDS011;7528;48.576;19.122;2023-05-29T14:02:13;6.30;;;5.70;;
14872;SDS011;7528;48.576;19.122;2023-05-29T14:07:16;7.05;;;5.45;;
14872;SDS011;7528;48.576;19.122;2023-05-29T14:12:19;6.03;;;5.35;;
14872;SDS011;7528;48.576;19.122;2023-05-29T14:17:22;5.28;;;4.78;;
14872;SDS011;7528;48.576;19.122;2023-05-29T14:22:26;5.70;;;5.10;;
14872;SDS011;7528;48.576;19.122;2023-05-29T14:27:30;5.13;;;4.63;;
14872;SDS011;7528;48.576;19.122;2023-05-29T14:32:32;5.22;;;4.72;;
14872;SDS011;7528;48.576;19.122;2023-05-29T14:37:35;4.93;;;4.45;;
14872;SDS011;7528;48.576;19.122;2023-05-29T14:42:39;5.32;;;4.60;;
14872;SDS011;7528;48.576;19.122;2023-05-29T14:47:41;4.85;;;4.38;;
14872;SDS011;7528;48.576;19.122;2023-05-29T14:52:43;6.35;;;5.03;;
14872;SDS011;7528;48.576;19.122;2023-05-29T14:57:49;5.30;;;4.70;;
14872;SDS011;7528;48.576;19.122;2023-05-29T15:02:51;5.40;;;4.85;;
14872;SDS011;7528;48.576;19.122;2023-05-29T15:07:54;5.32;;;4.82;;
14872;SDS011;7528;48.576;19.122;2023-05-29T15:12:58;7.10;;;5.07;;
14872;SDS011;7528;48.576;19.122;2023-05-29T15:18:01;5.95;;;5.00;;
14872;SDS011;7528;48.576;19.122;2023-05-29T15:23:03;5.47;;;4.97;;
14872;SDS011;7528;48.576;19.122;2023-05-29T15:28:07;7.00;;;5.10;;
14872;SDS011;7528;48.576;19.122;2023-05-29T15:33:09;6.18;;;4.78;;
14872;SDS011;7528;48.576;19.122;2023-05-29T15:38:12;6.90;;;5.97;;
14872;SDS011;7528;48.576;19.122;2023-05-29T15:43:15;5.82;;;5.22;;
14872;SDS011;7528;48.576;19.122;2023-05-29T15:48:18;6.20;;;5.40;;
14872;SDS011;7528;48.576;19.122;2023-05-29T15:53:20;6.10;;;5.50;;
14872;SDS011;7528;48.576;19.122;2023-05-29T15:58:26;6.47;;;5.70;;
14872;SDS011;7528;48.576;19.122;2023-05-29T16:03:29;7.32;;;6.22;;
14872;SDS011;7528;48.576;19.122;2023-05-29T16:08:31;6.20;;;5.22;;
14872;SDS011;7528;48.576;19.122;2023-05-29T16:13:35;6.30;;;5.70;;
14872;SDS011;7528;48.576;19.122;2023-05-29T16:18:38;5.82;;;5.25;;
14872;SDS011;7528;48.576;19.122;2023-05-29T16:23:40;6.35;;;5.63;;
14872;SDS011;7528;48.576;19.122;2023-05-29T16:28:44;7.43;;;5.45;;
14872;SDS011;7528;48.576;19.122;2023-05-29T16:33:46;6.95;;;6.25;;
14872;SDS011;7528;48.576;19.122;2023-05-29T16:38:49;8.05;;;6.47;;
14872;SDS011;7528;48.576;19.122;2023-05-29T16:43:53;8.32;;;6.35;;
14872;SDS011;7528;48.576;19.122;2023-05-29T16:48:55;6.90;;;6.20;;
14872;SDS011;7528;48.576;19.122;2023-05-29T16:53:58;6.68;;;6.03;;
14872;SDS011;7528;48.576;19.122;2023-05-29T16:59:02;7.55;;;5.70;;
14872;SDS011;7528;48.576;19.122;2023-05-29T17:04:04;6.93;;;5.63;;
14872;SDS011;7528;48.576;19.122;2023-05-29T17:09:09;6.90;;;6.13;;
14872;SDS011;7528;48.576;19.122;2023-05-29T17:14:13;6.70;;;6.00;;
14872;SDS011;7528;48.576;19.122;2023-05-29T17:19:15;8.40;;;6.13;;
14872;SDS011;7528;48.576;19.122;2023-05-29T17:24:18;7.00;;;6.30;;
14872;SDS011;7528;48.576;19.122;2023-05-29T17:29:22;7.40;;;6.20;;
14872;SDS011;7528;48.576;19.122;2023-05-29T17:34:24;7.47;;;6.03;;
14872;SDS011;7528;48.576;19.122;2023-05-29T17:39:27;7.13;;;6.03;;
14872;SDS011;7528;48.576;19.122;2023-05-29T17:44:31;7.07;;;5.93;;
14872;SDS011;7528;48.576;19.122;2023-05-29T17:49:33;6.40;;;5.50;;
14872;SDS011;7528;48.576;19.122;2023-05-29T17:54:35;7.03;;;5.95;;
14872;SDS011;7528;48.576;19.122;2023-05-29T17:59:39;6.45;;;5.75;;
14872;SDS011;7528;48.576;19.122;2023-05-29T18:04:41;7.90;;;5.97;;
14872;SDS011;7528;48.576;19.122;2023-05-29T18:09:44;6.50;;;5.85;;
14872;SDS011;7528;48.576;19.122;2023-05-29T18:14:48;7.38;;;6.68;;
14872;SDS011;7528;48.576;19.122;2023-05-29T18:19:50;7.03;;;5.88;;
14872;SDS011;7528;48.576;19.122;2023-05-29T18:24:53;9.65;;;6.15;;
14872;SDS011;7528;48.576;19.122;2023-05-29T18:29:57;8.23;;;7.35;;
14872;SDS011;7528;48.576;19.122;2023-05-29T18:35:00;8.38;;;6.47;;
14872;SDS011;7528;48.576;19.122;2023-05-29T18:40:02;6.80;;;6.10;;
14872;SDS011;7528;48.576;19.122;2023-05-29T18:45:08;9.23;;;6.43;;
14872;SDS011;7528;48.576;19.122;2023-05-29T18:50:11;7.82;;;6.20;;
14872;SDS011;7528;48.576;19.122;2023-05-29T18:55:14;7.75;;;5.93;;
14872;SDS011;7528;48.576;19.122;2023-05-29T19:00:18;7.45;;;6.53;;
14872;SDS011;7528;48.576;19.122;2023-05-29T19:05:20;7.85;;;6.32;;
14872;SDS011;7528;48.576;19.122;2023-05-29T19:10:23;7.50;;;6.35;;
14872;SDS011;7528;48.576;19.122;2023-05-29T19:15:27;7.20;;;6.28;;
14872;SDS011;7528;48.576;19.122;2023-05-29T19:20:29;10.05;;;6.95;;
14872;SDS011;7528;48.576;19.122;2023-05-29T19:25:31;8.98;;;7.00;;
14872;SDS011;7528;48.576;19.122;2023-05-29T19:30:35;8.40;;;6.45;;
14872;SDS011;7528;48.576;19.122;2023-05-29T19:35:37;8.43;;;6.90;;
14872;SDS011;7528;48.576;19.122;2023-05-29T19:40:40;7.35;;;6.55;;
14872;SDS011;7528;48.576;19.122;2023-05-29T19:45:45;8.90;;;6.93;;
14872;SDS011;7528;48.576;19.122;2023-05-29T19:50:48;9.02;;;6.60;;
14872;SDS011;7528;48.576;19.122;2023-05-29T19:55:50;7.43;;;6.63;;
14872;SDS011;7528;48.576;19.122;2023-05-29T20:00:54;7.50;;;6.72;;
14872;SDS011;7528;48.576;19.122;2023-05-29T20:05:56;7.03;;;6.35;;
14872;SDS011;7528;48.576;19.122;2023-05-29T20:10:59;9.70;;;6.68;;
14872;SDS011;7528;48.576;19.122;2023-05-29T20:16:03;8.05;;;7.03;;
14872;SDS011;7528;48.576;19.122;2023-05-29T20:21:05;7.88;;;6.82;;
14872;SDS011;7528;48.576;19.122;2023-05-29T20:26:09;8.60;;;7.72;;
14872;SDS011;7528;48.576;19.122;2023-05-29T20:31:13;8.70;;;7.32;;
14872;SDS011;7528;48.576;19.122;2023-05-29T20:36:16;8.13;;;6.70;;
14872;SDS011;7528;48.576;19.122;2023-05-29T20:41:19;9.32;;;7.40;;
14872;SDS011;7528;48.576;19.122;2023-05-29T20:46:24;9.13;;;8.15;;
14872;SDS011;7528;48.576;19.122;2023-05-29T20:51:26;7.60;;;6.80;;
14872;SDS011;7528;48.576;19.122;2023-05-29T20:56:29;7.88;;;7.00;;
14872;SDS011;7528;48.576;19.122;2023-05-29T21:01:33;8.25;;;7.22;;
14872;SDS011;7528;48.576;19.122;2023-05-29T21:06:36;9.70;;;6.70;;
14872;SDS011;7528;48.576;19.122;2023-05-29T21:11:38;7.93;;;7.13;;
14872;SDS011;7528;48.576;19.122;2023-05-29T21:16:42;8.18;;;7.22;;
14872;SDS011;7528;48.576;19.122;2023-05-29T21:21:44;9.55;;;7.47;;
14872;SDS011;7528;48.576;19.122;2023-05-29T21:26:47;8.77;;;7.25;;
14872;SDS011;7528;48.576;19.122;2023-05-29T21:31:51;8.40;;;6.82;;
14872;SDS011;7528;48.576;19.122;2023-05-29T21:36:53;9.40;;;7.28;;
14872;SDS011;7528;48.576;19.122;2023-05-29T21:41:56;8.23;;;7.38;;
14872;SDS011;7528;48.576;19.122;2023-05-29T21:47:00;9.80;;;7.07;;
14872;SDS011;7528;48.576;19.122;2023-05-29T21:52:02;9.85;;;6.90;;
14872;SDS011;7528;48.576;19.122;2023-05-29T21:57:05;8.13;;;6.55;;
14872;SDS011;7528;48.576;19.122;2023-05-29T22:02:10;11.13;;;7.70;;
14872;SDS011;7528;48.576;19.122;2023-05-29T22:07:12;11.63;;;7.38;;
14872;SDS011;7528;48.576;19.122;2023-05-29T22:12:15;10.38;;;7.75;;
14872;SDS011;7528;48.576;19.122;2023-05-29T22:17:19;9.88;;;7.93;;
14872;SDS011;7528;48.576;19.122;2023-05-29T22:22:21;9.55;;;7.03;;
14872;SDS011;7528;48.576;19.122;2023-05-29T22:27:25;9.20;;;7.25;;
14872;SDS011;7528;48.576;19.122;2023-05-29T22:32:28;9.15;;;7.10;;
14872;SDS011;7528;48.576;19.122;2023-05-29T22:37:31;8.55;;;6.65;;
14872;SDS011;7528;48.576;19.122;2023-05-29T22:42:34;8.10;;;7.05;;
14872;SDS011;7528;48.576;19.122;2023-05-29T22:47:38;10.68;;;6.50;;
14872;SDS011;7528;48.576;19.122;2023-05-29T22:52:44;7.78;;;6.90;;
14872;SDS011;7528;48.576;19.122;2023-05-29T22:57:46;8.43;;;6.70;;
14872;SDS011;7528;48.576;19.122;2023-05-29T23:02:50;10.13;;;7.00;;
14872;SDS011;7528;48.576;19.122;2023-05-29T23:07:53;9.95;;;6.55;;
14872;SDS011;7528;48.576;19.122;2023-05-29T23:12:55;9.73;;;7.28;;
14872;SDS011;7528;48.576;19.122;2023-05-29T23:17:59;9.02;;;6.85;;
14872;SDS011;7528;48.576;19.122;2023-05-29T23:23:02;7.70;;;5.97;;
14872;SDS011;7528;48.576;19.122;2023-05-29T23:28:05;8.38;;;7.15;;
14872;SDS011;7528;48.576;19.122;2023-05-29T23:33:09;7.55;;;6.63;;
14872;SDS011;7528;48.576;19.122;2023-05-29T23:38:12;8.10;;;6.15;;
14872;SDS011;7528;48.576;19.122;2023-05-29T23:43:15;8.50;;;6.28;;
14872;SDS011;7528;48.576;19.122;2023-05-29T23:48:19;8.20;;;6.53;;
14872;SDS011;7528;48.576;19.122;2023-05-29T23:53:21;7.70;;;6.90;;
14872;SDS011;7528;48.576;19.122;2023-05-29T23:58:24;8.68;;;6.90;;
